sensor_id;sensor_type;location;lat;lon;timestamp;P1;durP1;ratioP1;P2;durP2;ratioP2
39324;SDS011;25037;49.488;9.900;2023-07-08T00:00:42;16.15;;;5.93;;
39324;SDS011;25037;49.488;9.900;2023-07-08T00:03:11;12.38;;;5.50;;
39324;SDS011;25037;49.488;9.900;2023-07-08T00:08:04;13.10;;;6.05;;
39324;SDS011;25037;49.488;9.900;2023-07-08T00:12:58;13.38;;;6.05;;
39324;SDS011;25037;49.488;9.900;2023-07-08T00:15:26;12.85;;;5.75;;
39324;SDS011;25037;49.488;9.900;2023-07-08T00:17:55;15.75;;;5.97;;
39324;SDS011;25037;49.488;9.900;2023-07-08T00:20:32;13.30;;;5.80;;
39324;SDS011;25037;49.488;9.900;2023-07-08T00:23:03;13.98;;;6.13;;
39324;SDS011;25037;49.488;9.900;2023-07-08T00:25:30;14.02;;;5.60;;
39324;SDS011;25037;49.488;9.900;2023-07-08T00:27:58;11.32;;;6.03;;
39324;SDS011;25037;49.488;9.900;2023-07-08T00:30:25;11.13;;;5.00;;
39324;SDS011;25037;49.488;9.900;2023-07-08T00:32:54;11.40;;;5.47;;
39324;SDS011;25037;49.488;9.900;2023-07-08T00:35:22;11.30;;;5.13;;
39324;SDS011;25037;49.488;9.900;2023-07-08T00:37:55;13.13;;;5.40;;
39324;SDS011;25037;49.488;9.900;2023-07-08T00:40:28;12.00;;;5.18;;
39324;SDS011;25037;49.488;9.900;2023-07-08T00:42:57;11.50;;;5.85;;
39324;SDS011;25037;49.488;9.900;2023-07-08T00:45:31;10.80;;;5.35;;
39324;SDS011;25037;49.488;9.900;2023-07-08T00:48:22;11.90;;;5.53;;
39324;SDS011;25037;49.488;9.900;2023-07-08T00:50:50;12.98;;;5.05;;
39324;SDS011;25037;49.488;9.900;2023-07-08T00:56:06;12.65;;;5.90;;
39324;SDS011;25037;49.488;9.900;2023-07-08T00:58:57;11.55;;;5.10;;
39324;SDS011;25037;49.488;9.900;2023-07-08T01:01:27;12.57;;;5.47;;
39324;SDS011;25037;49.488;9.900;2023-07-08T01:04:04;11.52;;;5.40;;
39324;SDS011;25037;49.488;9.900;2023-07-08T01:06:35;24.63;;;5.60;;
39324;SDS011;25037;49.488;9.900;2023-07-08T01:09:07;11.38;;;5.07;;
39324;SDS011;25037;49.488;9.900;2023-07-08T01:11:36;13.45;;;5.47;;
39324;SDS011;25037;49.488;9.900;2023-07-08T01:14:05;11.25;;;5.30;;
39324;SDS011;25037;49.488;9.900;2023-07-08T01:16:35;13.07;;;4.97;;
39324;SDS011;25037;49.488;9.900;2023-07-08T01:19:02;13.55;;;5.25;;
39324;SDS011;25037;49.488;9.900;2023-07-08T01:24:04;12.25;;;5.72;;
39324;SDS011;25037;49.488;9.900;2023-07-08T01:26:37;11.63;;;5.30;;
39324;SDS011;25037;49.488;9.900;2023-07-08T01:29:08;10.95;;;5.15;;
39324;SDS011;25037;49.488;9.900;2023-07-08T01:31:34;12.05;;;5.18;;
39324;SDS011;25037;49.488;9.900;2023-07-08T01:34:01;9.50;;;5.18;;
39324;SDS011;25037;49.488;9.900;2023-07-08T01:36:29;11.05;;;5.40;;
39324;SDS011;25037;49.488;9.900;2023-07-08T01:39:00;10.85;;;5.35;;
39324;SDS011;25037;49.488;9.900;2023-07-08T01:43:53;10.35;;;4.53;;
39324;SDS011;25037;49.488;9.900;2023-07-08T01:48:51;11.32;;;4.68;;
39324;SDS011;25037;49.488;9.900;2023-07-08T01:51:20;13.98;;;4.85;;
39324;SDS011;25037;49.488;9.900;2023-07-08T01:53:49;12.63;;;5.30;;
39324;SDS011;25037;49.488;9.900;2023-07-08T01:56:15;10.52;;;4.93;;
39324;SDS011;25037;49.488;9.900;2023-07-08T01:58:43;12.02;;;5.15;;
39324;SDS011;25037;49.488;9.900;2023-07-08T02:01:10;11.32;;;5.25;;
39324;SDS011;25037;49.488;9.900;2023-07-08T02:03:37;13.13;;;6.03;;
39324;SDS011;25037;49.488;9.900;2023-07-08T02:08:31;13.93;;;6.07;;
39324;SDS011;25037;49.488;9.900;2023-07-08T02:13:25;13.18;;;5.30;;
39324;SDS011;25037;49.488;9.900;2023-07-08T02:15:52;13.18;;;5.07;;
39324;SDS011;25037;49.488;9.900;2023-07-08T02:18:19;11.75;;;5.60;;
39324;SDS011;25037;49.488;9.900;2023-07-08T02:23:13;10.07;;;5.25;;
39324;SDS011;25037;49.488;9.900;2023-07-08T02:25:41;13.30;;;6.13;;
39324;SDS011;25037;49.488;9.900;2023-07-08T02:28:08;13.38;;;7.13;;
39324;SDS011;25037;49.488;9.900;2023-07-08T02:30:35;18.08;;;8.23;;
39324;SDS011;25037;49.488;9.900;2023-07-08T02:33:03;18.70;;;9.45;;
39324;SDS011;25037;49.488;9.900;2023-07-08T02:37:57;23.90;;;12.30;;
39324;SDS011;25037;49.488;9.900;2023-07-08T02:40:24;22.33;;;11.43;;
39324;SDS011;25037;49.488;9.900;2023-07-08T02:42:52;20.00;;;10.40;;
39324;SDS011;25037;49.488;9.900;2023-07-08T02:45:19;18.63;;;9.48;;
39324;SDS011;25037;49.488;9.900;2023-07-08T02:47:45;14.85;;;8.00;;
39324;SDS011;25037;49.488;9.900;2023-07-08T02:50:12;13.32;;;6.80;;
39324;SDS011;25037;49.488;9.900;2023-07-08T02:52:39;12.95;;;6.38;;
39324;SDS011;25037;49.488;9.900;2023-07-08T02:57:33;10.35;;;5.03;;
39324;SDS011;25037;49.488;9.900;2023-07-08T03:02:26;14.20;;;6.43;;
39324;SDS011;25037;49.488;9.900;2023-07-08T03:04:53;12.93;;;5.90;;
39324;SDS011;25037;49.488;9.900;2023-07-08T03:09:47;12.50;;;5.45;;
39324;SDS011;25037;49.488;9.900;2023-07-08T03:12:13;12.93;;;6.10;;
39324;SDS011;25037;49.488;9.900;2023-07-08T03:14:40;11.00;;;5.55;;
39324;SDS011;25037;49.488;9.900;2023-07-08T03:19:33;12.48;;;5.45;;
39324;SDS011;25037;49.488;9.900;2023-07-08T03:22:01;13.50;;;6.00;;
39324;SDS011;25037;49.488;9.900;2023-07-08T03:24:31;11.80;;;5.55;;
39324;SDS011;25037;49.488;9.900;2023-07-08T03:26:57;13.65;;;4.88;;
39324;SDS011;25037;49.488;9.900;2023-07-08T03:29:26;11.32;;;4.95;;
39324;SDS011;25037;49.488;9.900;2023-07-08T03:31:53;12.88;;;6.00;;
39324;SDS011;25037;49.488;9.900;2023-07-08T03:34:19;11.57;;;5.13;;
39324;SDS011;25037;49.488;9.900;2023-07-08T03:36:48;11.05;;;4.82;;
39324;SDS011;25037;49.488;9.900;2023-07-08T03:39:17;11.20;;;4.82;;
39324;SDS011;25037;49.488;9.900;2023-07-08T03:41:45;13.43;;;5.03;;
39324;SDS011;25037;49.488;9.900;2023-07-08T03:44:13;11.88;;;5.47;;
39324;SDS011;25037;49.488;9.900;2023-07-08T03:46:45;13.70;;;5.78;;
39324;SDS011;25037;49.488;9.900;2023-07-08T03:49:16;9.05;;;4.90;;
39324;SDS011;25037;49.488;9.900;2023-07-08T03:51:48;14.32;;;5.57;;
39324;SDS011;25037;49.488;9.900;2023-07-08T03:54:17;11.02;;;5.43;;
39324;SDS011;25037;49.488;9.900;2023-07-08T03:56:44;12.60;;;5.72;;
39324;SDS011;25037;49.488;9.900;2023-07-08T03:59:11;10.48;;;4.90;;
39324;SDS011;25037;49.488;9.900;2023-07-08T04:04:08;11.35;;;4.90;;
39324;SDS011;25037;49.488;9.900;2023-07-08T04:06:38;12.38;;;5.60;;
39324;SDS011;25037;49.488;9.900;2023-07-08T04:11:31;11.95;;;5.10;;
39324;SDS011;25037;49.488;9.900;2023-07-08T04:13:58;13.35;;;5.18;;
39324;SDS011;25037;49.488;9.900;2023-07-08T04:16:26;11.40;;;5.72;;
39324;SDS011;25037;49.488;9.900;2023-07-08T04:19:14;12.23;;;6.13;;
39324;SDS011;25037;49.488;9.900;2023-07-08T04:21:42;12.30;;;6.05;;
39324;SDS011;25037;49.488;9.900;2023-07-08T04:24:11;10.90;;;5.28;;
39324;SDS011;25037;49.488;9.900;2023-07-08T04:26:38;10.55;;;5.38;;
39324;SDS011;25037;49.488;9.900;2023-07-08T04:29:13;11.80;;;5.63;;
39324;SDS011;25037;49.488;9.900;2023-07-08T04:31:42;10.98;;;5.78;;
39324;SDS011;25037;49.488;9.900;2023-07-08T04:34:09;9.85;;;4.63;;
39324;SDS011;25037;49.488;9.900;2023-07-08T04:36:36;13.60;;;5.43;;
39324;SDS011;25037;49.488;9.900;2023-07-08T04:39:04;10.90;;;5.38;;
39324;SDS011;25037;49.488;9.900;2023-07-08T04:41:32;11.45;;;5.32;;
39324;SDS011;25037;49.488;9.900;2023-07-08T04:43:59;15.50;;;5.70;;
39324;SDS011;25037;49.488;9.900;2023-07-08T04:49:03;9.90;;;6.10;;
39324;SDS011;25037;49.488;9.900;2023-07-08T04:51:31;10.70;;;5.72;;
39324;SDS011;25037;49.488;9.900;2023-07-08T04:53:58;10.35;;;6.57;;
39324;SDS011;25037;49.488;9.900;2023-07-08T04:56:25;10.02;;;6.22;;
39324;SDS011;25037;49.488;9.900;2023-07-08T04:59:02;10.10;;;6.50;;
39324;SDS011;25037;49.488;9.900;2023-07-08T05:01:29;9.63;;;6.53;;
39324;SDS011;25037;49.488;9.900;2023-07-08T05:03:56;9.75;;;7.30;;
39324;SDS011;25037;49.488;9.900;2023-07-08T05:06:23;9.50;;;7.90;;
39324;SDS011;25037;49.488;9.900;2023-07-08T05:08:50;11.52;;;8.88;;
39324;SDS011;25037;49.488;9.900;2023-07-08T05:11:16;11.45;;;8.23;;
39324;SDS011;25037;49.488;9.900;2023-07-08T05:13:43;12.30;;;9.18;;
39324;SDS011;25037;49.488;9.900;2023-07-08T05:16:10;10.32;;;8.20;;
39324;SDS011;25037;49.488;9.900;2023-07-08T05:18:37;11.00;;;7.93;;
39324;SDS011;25037;49.488;9.900;2023-07-08T05:21:03;11.43;;;8.10;;
39324;SDS011;25037;49.488;9.900;2023-07-08T05:23:31;9.88;;;7.35;;
39324;SDS011;25037;49.488;9.900;2023-07-08T05:26:01;10.65;;;6.43;;
39324;SDS011;25037;49.488;9.900;2023-07-08T05:28:29;12.45;;;6.93;;
39324;SDS011;25037;49.488;9.900;2023-07-08T05:30:56;8.88;;;5.50;;
39324;SDS011;25037;49.488;9.900;2023-07-08T05:33:25;10.52;;;5.47;;
39324;SDS011;25037;49.488;9.900;2023-07-08T05:35:53;9.52;;;5.68;;
39324;SDS011;25037;49.488;9.900;2023-07-08T05:38:20;11.05;;;5.13;;
39324;SDS011;25037;49.488;9.900;2023-07-08T05:40:51;9.07;;;5.80;;
39324;SDS011;25037;49.488;9.900;2023-07-08T05:43:21;9.00;;;5.57;;
39324;SDS011;25037;49.488;9.900;2023-07-08T05:45:47;9.57;;;5.22;;
39324;SDS011;25037;49.488;9.900;2023-07-08T05:48:30;8.18;;;5.57;;
39324;SDS011;25037;49.488;9.900;2023-07-08T05:50:57;11.23;;;5.72;;
39324;SDS011;25037;49.488;9.900;2023-07-08T05:53:24;9.40;;;5.80;;
39324;SDS011;25037;49.488;9.900;2023-07-08T05:55:51;10.25;;;9.15;;
39324;SDS011;25037;49.488;9.900;2023-07-08T05:58:17;12.90;;;8.75;;
39324;SDS011;25037;49.488;9.900;2023-07-08T06:00:55;10.75;;;9.65;;
39324;SDS011;25037;49.488;9.900;2023-07-08T06:05:51;12.38;;;11.27;;
39324;SDS011;25037;49.488;9.900;2023-07-08T06:08:17;14.40;;;13.20;;
39324;SDS011;25037;49.488;9.900;2023-07-08T06:10:44;12.98;;;11.70;;
39324;SDS011;25037;49.488;9.900;2023-07-08T06:13:11;13.50;;;12.23;;
39324;SDS011;25037;49.488;9.900;2023-07-08T06:15:39;10.32;;;8.43;;
39324;SDS011;25037;49.488;9.900;2023-07-08T06:18:06;14.93;;;13.80;;
39324;SDS011;25037;49.488;9.900;2023-07-08T06:20:32;16.27;;;14.77;;
39324;SDS011;25037;49.488;9.900;2023-07-08T06:23:00;12.88;;;11.77;;
39324;SDS011;25037;49.488;9.900;2023-07-08T06:25:27;14.63;;;13.32;;
39324;SDS011;25037;49.488;9.900;2023-07-08T06:27:54;13.15;;;11.90;;
39324;SDS011;25037;49.488;9.900;2023-07-08T06:30:20;13.32;;;12.02;;
39324;SDS011;25037;49.488;9.900;2023-07-08T06:32:47;11.15;;;10.05;;
39324;SDS011;25037;49.488;9.900;2023-07-08T06:35:14;12.80;;;11.55;;
39324;SDS011;25037;49.488;9.900;2023-07-08T06:37:41;11.20;;;9.93;;
39324;SDS011;25037;49.488;9.900;2023-07-08T06:40:07;10.82;;;9.05;;
39324;SDS011;25037;49.488;9.900;2023-07-08T06:42:34;10.40;;;8.60;;
39324;SDS011;25037;49.488;9.900;2023-07-08T06:45:01;10.57;;;7.95;;
39324;SDS011;25037;49.488;9.900;2023-07-08T06:47:29;9.88;;;8.88;;
39324;SDS011;25037;49.488;9.900;2023-07-08T06:49:56;10.25;;;9.05;;
39324;SDS011;25037;49.488;9.900;2023-07-08T06:52:25;10.32;;;5.80;;
39324;SDS011;25037;49.488;9.900;2023-07-08T06:54:51;8.63;;;7.72;;
39324;SDS011;25037;49.488;9.900;2023-07-08T06:57:18;9.30;;;7.03;;
39324;SDS011;25037;49.488;9.900;2023-07-08T06:59:45;8.23;;;5.63;;
39324;SDS011;25037;49.488;9.900;2023-07-08T07:02:12;10.23;;;8.23;;
39324;SDS011;25037;49.488;9.900;2023-07-08T07:04:39;7.38;;;5.25;;
39324;SDS011;25037;49.488;9.900;2023-07-08T07:07:06;9.30;;;7.00;;
39324;SDS011;25037;49.488;9.900;2023-07-08T07:09:33;9.48;;;6.72;;
39324;SDS011;25037;49.488;9.900;2023-07-08T07:11:59;7.80;;;6.07;;
39324;SDS011;25037;49.488;9.900;2023-07-08T07:14:26;7.45;;;5.97;;
39324;SDS011;25037;49.488;9.900;2023-07-08T07:16:56;7.78;;;5.88;;
39324;SDS011;25037;49.488;9.900;2023-07-08T07:19:34;7.65;;;4.75;;
39324;SDS011;25037;49.488;9.900;2023-07-08T07:22:01;7.35;;;6.25;;
39324;SDS011;25037;49.488;9.900;2023-07-08T07:24:28;9.30;;;5.15;;
39324;SDS011;25037;49.488;9.900;2023-07-08T07:26:55;6.65;;;4.22;;
39324;SDS011;25037;49.488;9.900;2023-07-08T07:29:22;7.63;;;5.93;;
39324;SDS011;25037;49.488;9.900;2023-07-08T07:31:49;7.93;;;5.97;;
39324;SDS011;25037;49.488;9.900;2023-07-08T07:34:17;7.65;;;6.43;;
39324;SDS011;25037;49.488;9.900;2023-07-08T07:36:44;7.07;;;5.20;;
39324;SDS011;25037;49.488;9.900;2023-07-08T07:39:11;7.95;;;5.18;;
39324;SDS011;25037;49.488;9.900;2023-07-08T07:41:38;8.10;;;5.40;;
39324;SDS011;25037;49.488;9.900;2023-07-08T07:44:04;7.97;;;4.55;;
39324;SDS011;25037;49.488;9.900;2023-07-08T07:46:31;9.63;;;6.65;;
39324;SDS011;25037;49.488;9.900;2023-07-08T07:48:58;7.47;;;4.32;;
39324;SDS011;25037;49.488;9.900;2023-07-08T07:51:25;7.45;;;5.53;;
39324;SDS011;25037;49.488;9.900;2023-07-08T07:53:52;9.57;;;4.75;;
39324;SDS011;25037;49.488;9.900;2023-07-08T07:56:19;8.40;;;5.55;;
39324;SDS011;25037;49.488;9.900;2023-07-08T07:58:46;11.80;;;4.95;;
39324;SDS011;25037;49.488;9.900;2023-07-08T08:01:13;7.45;;;6.07;;
39324;SDS011;25037;49.488;9.900;2023-07-08T08:03:39;8.23;;;4.57;;
39324;SDS011;25037;49.488;9.900;2023-07-08T08:06:06;7.07;;;4.65;;
39324;SDS011;25037;49.488;9.900;2023-07-08T08:08:33;7.32;;;5.70;;
39324;SDS011;25037;49.488;9.900;2023-07-08T08:11:03;9.25;;;5.22;;
39324;SDS011;25037;49.488;9.900;2023-07-08T08:13:30;7.85;;;5.97;;
39324;SDS011;25037;49.488;9.900;2023-07-08T08:15:57;7.40;;;5.40;;
39324;SDS011;25037;49.488;9.900;2023-07-08T08:18:26;10.00;;;7.38;;
39324;SDS011;25037;49.488;9.900;2023-07-08T08:20:53;8.52;;;6.60;;
39324;SDS011;25037;49.488;9.900;2023-07-08T08:23:19;10.40;;;6.38;;
39324;SDS011;25037;49.488;9.900;2023-07-08T08:25:47;8.82;;;7.00;;
39324;SDS011;25037;49.488;9.900;2023-07-08T08:28:13;8.88;;;6.82;;
39324;SDS011;25037;49.488;9.900;2023-07-08T08:30:40;8.15;;;5.82;;
39324;SDS011;25037;49.488;9.900;2023-07-08T08:33:07;8.25;;;5.18;;
39324;SDS011;25037;49.488;9.900;2023-07-08T08:35:34;7.93;;;5.55;;
39324;SDS011;25037;49.488;9.900;2023-07-08T08:38:00;8.90;;;7.18;;
39324;SDS011;25037;49.488;9.900;2023-07-08T08:40:29;8.68;;;6.95;;
39324;SDS011;25037;49.488;9.900;2023-07-08T08:45:26;9.02;;;7.00;;
39324;SDS011;25037;49.488;9.900;2023-07-08T08:47:59;9.02;;;7.05;;
39324;SDS011;25037;49.488;9.900;2023-07-08T08:52:56;9.13;;;5.95;;
39324;SDS011;25037;49.488;9.900;2023-07-08T08:55:24;7.45;;;5.32;;
39324;SDS011;25037;49.488;9.900;2023-07-08T08:57:53;9.88;;;7.35;;
39324;SDS011;25037;49.488;9.900;2023-07-08T09:00:30;10.00;;;5.97;;
39324;SDS011;25037;49.488;9.900;2023-07-08T09:03:12;10.20;;;7.72;;
39324;SDS011;25037;49.488;9.900;2023-07-08T09:05:43;10.68;;;7.22;;
39324;SDS011;25037;49.488;9.900;2023-07-08T09:08:20;9.32;;;7.35;;
39324;SDS011;25037;49.488;9.900;2023-07-08T09:11:04;9.38;;;7.57;;
39324;SDS011;25037;49.488;9.900;2023-07-08T09:13:41;10.57;;;8.23;;
39324;SDS011;25037;49.488;9.900;2023-07-08T09:16:12;8.38;;;5.72;;
39324;SDS011;25037;49.488;9.900;2023-07-08T09:19:33;8.80;;;5.60;;
39324;SDS011;25037;49.488;9.900;2023-07-08T09:21:35;13.25;;;7.55;;
39324;SDS011;25037;49.488;9.900;2023-07-08T09:24:09;9.93;;;7.85;;
39324;SDS011;25037;49.488;9.900;2023-07-08T09:26:42;8.43;;;7.53;;
39324;SDS011;25037;49.488;9.900;2023-07-08T09:29:10;10.90;;;7.72;;
39324;SDS011;25037;49.488;9.900;2023-07-08T09:31:38;8.18;;;5.82;;
39324;SDS011;25037;49.488;9.900;2023-07-08T09:34:13;9.63;;;7.53;;
39324;SDS011;25037;49.488;9.900;2023-07-08T09:36:43;9.55;;;7.72;;
39324;SDS011;25037;49.488;9.900;2023-07-08T09:39:13;8.35;;;6.78;;
39324;SDS011;25037;49.488;9.900;2023-07-08T09:41:42;11.63;;;7.43;;
39324;SDS011;25037;49.488;9.900;2023-07-08T09:44:15;8.75;;;6.63;;
39324;SDS011;25037;49.488;9.900;2023-07-08T09:46:44;10.20;;;8.05;;
39324;SDS011;25037;49.488;9.900;2023-07-08T09:49:24;10.07;;;7.70;;
39324;SDS011;25037;49.488;9.900;2023-07-08T09:52:00;9.38;;;7.30;;
39324;SDS011;25037;49.488;9.900;2023-07-08T09:54:27;13.23;;;8.40;;
39324;SDS011;25037;49.488;9.900;2023-07-08T09:57:01;9.18;;;7.75;;
39324;SDS011;25037;49.488;9.900;2023-07-08T09:59:41;11.48;;;8.77;;
39324;SDS011;25037;49.488;9.900;2023-07-08T10:02:22;9.30;;;5.93;;
39324;SDS011;25037;49.488;9.900;2023-07-08T10:04:57;10.10;;;7.50;;
39324;SDS011;25037;49.488;9.900;2023-07-08T10:07:33;10.30;;;8.00;;
39324;SDS011;25037;49.488;9.900;2023-07-08T10:10:02;10.60;;;8.10;;
39324;SDS011;25037;49.488;9.900;2023-07-08T10:12:33;10.07;;;5.85;;
39324;SDS011;25037;49.488;9.900;2023-07-08T10:15:05;10.10;;;7.82;;
39324;SDS011;25037;49.488;9.900;2023-07-08T10:17:54;10.98;;;7.00;;
39324;SDS011;25037;49.488;9.900;2023-07-08T10:20:21;14.63;;;8.57;;
39324;SDS011;25037;49.488;9.900;2023-07-08T10:23:05;9.30;;;7.70;;
39324;SDS011;25037;49.488;9.900;2023-07-08T10:26:29;10.13;;;7.63;;
39324;SDS011;25037;49.488;9.900;2023-07-08T10:31:46;9.73;;;7.97;;
39324;SDS011;25037;49.488;9.900;2023-07-08T10:39:55;10.38;;;7.55;;
39324;SDS011;25037;49.488;9.900;2023-07-08T10:51:12;9.35;;;8.30;;
39324;SDS011;25037;49.488;9.900;2023-07-08T11:07:30;8.88;;;7.38;;
39324;SDS011;25037;49.488;9.900;2023-07-08T11:12:46;15.23;;;9.07;;
39324;SDS011;25037;49.488;9.900;2023-07-08T11:15:18;11.00;;;8.02;;
39324;SDS011;25037;49.488;9.900;2023-07-08T11:17:51;11.15;;;6.93;;
39324;SDS011;25037;49.488;9.900;2023-07-08T11:20:26;9.52;;;7.40;;
39324;SDS011;25037;49.488;9.900;2023-07-08T11:23:03;12.50;;;7.97;;
39324;SDS011;25037;49.488;9.900;2023-07-08T11:25:37;10.68;;;5.63;;
39324;SDS011;25037;49.488;9.900;2023-07-08T11:28:05;11.82;;;7.68;;
39324;SDS011;25037;49.488;9.900;2023-07-08T11:30:40;9.75;;;7.30;;
39324;SDS011;25037;49.488;9.900;2023-07-08T11:33:11;11.73;;;8.50;;
39324;SDS011;25037;49.488;9.900;2023-07-08T11:35:43;10.85;;;7.78;;
39324;SDS011;25037;49.488;9.900;2023-07-08T11:38:16;10.40;;;6.80;;
39324;SDS011;25037;49.488;9.900;2023-07-08T11:40:50;10.77;;;7.35;;
39324;SDS011;25037;49.488;9.900;2023-07-08T11:43:17;11.48;;;7.47;;
39324;SDS011;25037;49.488;9.900;2023-07-08T11:45:46;9.95;;;7.20;;
39324;SDS011;25037;49.488;9.900;2023-07-08T11:48:21;8.25;;;6.85;;
39324;SDS011;25037;49.488;9.900;2023-07-08T11:50:51;10.20;;;7.88;;
39324;SDS011;25037;49.488;9.900;2023-07-08T11:55:59;11.95;;;7.22;;
39324;SDS011;25037;49.488;9.900;2023-07-08T11:58:27;9.20;;;6.97;;
39324;SDS011;25037;49.488;9.900;2023-07-08T12:00:59;10.13;;;7.30;;
39324;SDS011;25037;49.488;9.900;2023-07-08T12:03:37;9.32;;;5.55;;
39324;SDS011;25037;49.488;9.900;2023-07-08T12:08:52;8.88;;;6.07;;
39324;SDS011;25037;49.488;9.900;2023-07-08T12:11:35;9.30;;;8.10;;
39324;SDS011;25037;49.488;9.900;2023-07-08T12:14:05;11.18;;;8.07;;
39324;SDS011;25037;49.488;9.900;2023-07-08T12:16:35;11.00;;;9.05;;
39324;SDS011;25037;49.488;9.900;2023-07-08T12:19:02;8.98;;;6.45;;
39324;SDS011;25037;49.488;9.900;2023-07-08T12:21:34;10.50;;;8.15;;
39324;SDS011;25037;49.488;9.900;2023-07-08T12:24:04;12.23;;;8.13;;
39324;SDS011;25037;49.488;9.900;2023-07-08T12:26:33;10.02;;;8.60;;
39324;SDS011;25037;49.488;9.900;2023-07-08T12:29:00;10.52;;;7.65;;
39324;SDS011;25037;49.488;9.900;2023-07-08T12:31:27;9.38;;;6.68;;
39324;SDS011;25037;49.488;9.900;2023-07-08T12:33:55;15.02;;;7.57;;
39324;SDS011;25037;49.488;9.900;2023-07-08T12:36:22;9.05;;;7.68;;
39324;SDS011;25037;49.488;9.900;2023-07-08T12:38:53;8.27;;;7.30;;
39324;SDS011;25037;49.488;9.900;2023-07-08T12:41:23;9.80;;;7.07;;
39324;SDS011;25037;49.488;9.900;2023-07-08T12:43:51;9.90;;;7.00;;
39324;SDS011;25037;49.488;9.900;2023-07-08T12:46:19;9.57;;;7.07;;
39324;SDS011;25037;49.488;9.900;2023-07-08T12:48:47;9.63;;;7.47;;
39324;SDS011;25037;49.488;9.900;2023-07-08T12:51:19;8.02;;;7.13;;
39324;SDS011;25037;49.488;9.900;2023-07-08T12:53:52;12.25;;;6.93;;
39324;SDS011;25037;49.488;9.900;2023-07-08T12:56:20;9.73;;;7.55;;
39324;SDS011;25037;49.488;9.900;2023-07-08T12:58:49;9.25;;;6.78;;
39324;SDS011;25037;49.488;9.900;2023-07-08T13:01:22;8.65;;;6.88;;
39324;SDS011;25037;49.488;9.900;2023-07-08T13:03:53;7.13;;;5.35;;
39324;SDS011;25037;49.488;9.900;2023-07-08T13:06:25;10.10;;;7.68;;
39324;SDS011;25037;49.488;9.900;2023-07-08T13:08:56;7.88;;;5.38;;
39324;SDS011;25037;49.488;9.900;2023-07-08T13:11:32;9.18;;;7.30;;
39324;SDS011;25037;49.488;9.900;2023-07-08T13:14:00;9.02;;;6.90;;
39324;SDS011;25037;49.488;9.900;2023-07-08T13:16:32;8.52;;;6.55;;
39324;SDS011;25037;49.488;9.900;2023-07-08T13:19:01;8.25;;;6.78;;
39324;SDS011;25037;49.488;9.900;2023-07-08T13:21:28;7.80;;;6.25;;
39324;SDS011;25037;49.488;9.900;2023-07-08T13:23:56;8.13;;;6.53;;
39324;SDS011;25037;49.488;9.900;2023-07-08T13:26:28;9.02;;;6.13;;
39324;SDS011;25037;49.488;9.900;2023-07-08T13:29:14;8.13;;;6.15;;
39324;SDS011;25037;49.488;9.900;2023-07-08T13:31:44;8.63;;;6.45;;
39324;SDS011;25037;49.488;9.900;2023-07-08T13:34:16;11.65;;;7.50;;
39324;SDS011;25037;49.488;9.900;2023-07-08T13:36:46;11.55;;;7.28;;
39324;SDS011;25037;49.488;9.900;2023-07-08T13:39:25;9.48;;;6.95;;
39324;SDS011;25037;49.488;9.900;2023-07-08T13:41:55;9.15;;;6.55;;
39324;SDS011;25037;49.488;9.900;2023-07-08T13:44:23;7.35;;;4.97;;
39324;SDS011;25037;49.488;9.900;2023-07-08T13:51:50;10.13;;;7.35;;
39324;SDS011;25037;49.488;9.900;2023-07-08T13:54:19;7.47;;;6.35;;
39324;SDS011;25037;49.488;9.900;2023-07-08T13:56:49;9.05;;;6.07;;
39324;SDS011;25037;49.488;9.900;2023-07-08T13:59:26;7.72;;;5.90;;
39324;SDS011;25037;49.488;9.900;2023-07-08T14:01:53;11.35;;;6.72;;
39324;SDS011;25037;49.488;9.900;2023-07-08T14:04:30;9.20;;;6.47;;
39324;SDS011;25037;49.488;9.900;2023-07-08T14:06:59;7.57;;;6.40;;
39324;SDS011;25037;49.488;9.900;2023-07-08T14:09:26;9.43;;;6.53;;
39324;SDS011;25037;49.488;9.900;2023-07-08T14:11:53;10.13;;;7.03;;
39324;SDS011;25037;49.488;9.900;2023-07-08T14:14:20;8.90;;;5.75;;
39324;SDS011;25037;49.488;9.900;2023-07-08T14:16:50;8.90;;;5.90;;
39324;SDS011;25037;49.488;9.900;2023-07-08T14:19:21;7.43;;;5.40;;
39324;SDS011;25037;49.488;9.900;2023-07-08T14:21:51;7.53;;;5.30;;
39324;SDS011;25037;49.488;9.900;2023-07-08T14:24:21;6.55;;;4.28;;
39324;SDS011;25037;49.488;9.900;2023-07-08T14:26:48;7.10;;;3.72;;
39324;SDS011;25037;49.488;9.900;2023-07-08T14:29:15;9.02;;;6.47;;
39324;SDS011;25037;49.488;9.900;2023-07-08T14:31:41;7.90;;;5.38;;
39324;SDS011;25037;49.488;9.900;2023-07-08T14:34:12;7.03;;;5.47;;
39324;SDS011;25037;49.488;9.900;2023-07-08T14:36:45;6.78;;;5.15;;
39324;SDS011;25037;49.488;9.900;2023-07-08T14:39:12;8.57;;;5.70;;
39324;SDS011;25037;49.488;9.900;2023-07-08T14:41:40;6.93;;;5.65;;
39324;SDS011;25037;49.488;9.900;2023-07-08T14:44:10;7.45;;;5.35;;
39324;SDS011;25037;49.488;9.900;2023-07-08T14:46:44;8.77;;;4.53;;
39324;SDS011;25037;49.488;9.900;2023-07-08T14:49:14;8.85;;;5.40;;
39324;SDS011;25037;49.488;9.900;2023-07-08T14:51:42;6.35;;;5.50;;
39324;SDS011;25037;49.488;9.900;2023-07-08T14:54:09;8.73;;;4.22;;
39324;SDS011;25037;49.488;9.900;2023-07-08T14:56:35;6.75;;;5.80;;
39324;SDS011;25037;49.488;9.900;2023-07-08T14:59:03;8.02;;;3.80;;
39324;SDS011;25037;49.488;9.900;2023-07-08T15:01:30;7.90;;;4.35;;
39324;SDS011;25037;49.488;9.900;2023-07-08T15:03:57;9.00;;;5.65;;
39324;SDS011;25037;49.488;9.900;2023-07-08T15:06:24;6.95;;;5.78;;
39324;SDS011;25037;49.488;9.900;2023-07-08T15:08:51;8.20;;;5.75;;
39324;SDS011;25037;49.488;9.900;2023-07-08T15:11:18;10.07;;;4.90;;
39324;SDS011;25037;49.488;9.900;2023-07-08T15:13:48;8.63;;;5.68;;
39324;SDS011;25037;49.488;9.900;2023-07-08T15:16:15;9.73;;;6.43;;
39324;SDS011;25037;49.488;9.900;2023-07-08T15:18:42;8.93;;;5.55;;
39324;SDS011;25037;49.488;9.900;2023-07-08T15:21:11;8.15;;;6.15;;
39324;SDS011;25037;49.488;9.900;2023-07-08T15:23:39;8.25;;;6.78;;
39324;SDS011;25037;49.488;9.900;2023-07-08T15:26:08;7.72;;;5.95;;
39324;SDS011;25037;49.488;9.900;2023-07-08T15:31:15;9.73;;;5.63;;
39324;SDS011;25037;49.488;9.900;2023-07-08T15:33:44;8.05;;;6.40;;
39324;SDS011;25037;49.488;9.900;2023-07-08T15:36:11;9.35;;;6.38;;
39324;SDS011;25037;49.488;9.900;2023-07-08T15:38:39;8.13;;;5.50;;
39324;SDS011;25037;49.488;9.900;2023-07-08T15:41:19;7.47;;;5.50;;
39324;SDS011;25037;49.488;9.900;2023-07-08T15:43:48;12.32;;;5.10;;
39324;SDS011;25037;49.488;9.900;2023-07-08T15:46:18;7.65;;;5.85;;
39324;SDS011;25037;49.488;9.900;2023-07-08T15:48:45;7.80;;;7.10;;
39324;SDS011;25037;49.488;9.900;2023-07-08T15:51:12;8.55;;;5.35;;
39324;SDS011;25037;49.488;9.900;2023-07-08T15:53:40;7.22;;;5.43;;
39324;SDS011;25037;49.488;9.900;2023-07-08T15:56:10;8.10;;;5.47;;
39324;SDS011;25037;49.488;9.900;2023-07-08T15:58:40;7.05;;;5.57;;
39324;SDS011;25037;49.488;9.900;2023-07-08T16:01:08;6.90;;;5.03;;
39324;SDS011;25037;49.488;9.900;2023-07-08T16:03:41;8.13;;;5.68;;
39324;SDS011;25037;49.488;9.900;2023-07-08T16:06:08;6.63;;;5.90;;
39324;SDS011;25037;49.488;9.900;2023-07-08T16:08:35;6.80;;;5.10;;
39324;SDS011;25037;49.488;9.900;2023-07-08T16:11:03;7.43;;;5.13;;
39324;SDS011;25037;49.488;9.900;2023-07-08T16:13:36;6.75;;;5.50;;
39324;SDS011;25037;49.488;9.900;2023-07-08T16:16:04;5.85;;;4.78;;
39324;SDS011;25037;49.488;9.900;2023-07-08T16:18:32;6.68;;;5.05;;
39324;SDS011;25037;49.488;9.900;2023-07-08T16:20:59;7.97;;;4.95;;
39324;SDS011;25037;49.488;9.900;2023-07-08T16:23:26;8.80;;;5.15;;
39324;SDS011;25037;49.488;9.900;2023-07-08T16:25:53;8.38;;;5.00;;
39324;SDS011;25037;49.488;9.900;2023-07-08T16:31:09;8.00;;;4.57;;
39324;SDS011;25037;49.488;9.900;2023-07-08T16:33:37;8.05;;;5.82;;